Mebane, NC (27302)

4:51 PM EST on November 27, 2014 (GMT -0500)
312 Woodlawn Drive | Change Station
CLOSE
Current Station
Personal Weather Station
Location: Mebane, NC
Elevation: 661 ft
Nearby Weather Stations

Elev 661 ft 36.11 °N, 79.27 °W | Updated 1 second ago

Mostly Cloudy
Mostly Cloudy
41.1 °F
Feels Like 41 °F
N
0.0
Wind Variable Wind from WNW
Gusts 0.0 mph

Today
High -- | Low -- °F
--% Chance of Precip.
Yesterday
High -- | Low -- °F
Precip. -- in
7:05 AM 5:03 PM
Waxing Crescent, 33% visible
Pressure 30.10 in
Visibility 10.0 miles
Clouds Mostly Cloudy 5000 ft
Mostly Cloudy 6000 ft
Windchill 41 °F
Dew Point 35 °F
Humidity 80%
Rainfall 0.36 in
Snow Depth Not available.
UV 0 out of 12
Pollen .10 out of 12
Air Quality Not available.
Flu Activity Not available.
METAR KBUY 272054Z AUTO 31008KT 10SM BKN050 BKN060 08/M02 A3010 RMK AO2 SLP193 60000 T00781017 53008

More Conditions Fewer Conditions

Pressure 30.10 in
Visibility 10.0 miles
Clouds Mostly Cloudy 5000 ft
Mostly Cloudy 6000 ft
Windchill 41 °F
Dew Point 35 °F
Humidity 80%
Rainfall 0.36 in
Snow Depth Not available.
UV 0 out of 12
Pollen .10 out of 12
Air Quality Not available.
Flu Activity Not available.
METAR KBUY 272054Z AUTO 31008KT 10SM BKN050 BKN060 08/M02 A3010 RMK AO2 SLP193 60000 T00781017 53008

More Conditions Fewer Conditions

10-Day Weather Forecast

Almanac

Astronomy

Nov. 27, 2014 Rise Set
Actual Time
Civil Twilight
Nautical Twilight
Astronomical Twilight
Moon
Length of Visible Light
Length of Day
Tomorrow will be .
, % of the Moon is Illuminated

Today's Extremes

State Highs State Lows

Community

WunderPhotos

Upload Photos

1,774,115 photos uploaded!

WunderBlogs® & News

Nearby

Air Quality

  Air Quality AQ Index Pollutant
Not available.

Snow Depth

Station Depth Elevation

Earthquake Activity

City Distance Mag. Time & Date
Minimum magnitude displayed is 2.5.

Coastal Water Temperatures

Place Temperature

Nearby Weather Stations